sensor_id;sensor_type;location;lat;lon;timestamp;P1;durP1;ratioP1;P2;durP2;ratioP2
1140;SDS011;559;48.628;8.924;2023-10-31T00:01:05;98.70;;;93.10;;
1140;SDS011;559;48.628;8.924;2023-10-31T00:03:31;96.05;;;90.55;;
1140;SDS011;559;48.628;8.924;2023-10-31T00:05:58;92.38;;;86.97;;
1140;SDS011;559;48.628;8.924;2023-10-31T00:08:24;89.05;;;83.75;;
1140;SDS011;559;48.628;8.924;2023-10-31T00:10:51;94.40;;;89.03;;
1140;SDS011;559;48.628;8.924;2023-10-31T00:13:17;89.10;;;83.90;;
1140;SDS011;559;48.628;8.924;2023-10-31T00:15:43;85.45;;;80.45;;
1140;SDS011;559;48.628;8.924;2023-10-31T00:18:11;82.03;;;77.22;;
1140;SDS011;559;48.628;8.924;2023-10-31T00:20:38;86.10;;;81.05;;
1140;SDS011;559;48.628;8.924;2023-10-31T00:23:04;78.65;;;74.05;;
1140;SDS011;559;48.628;8.924;2023-10-31T00:25:31;78.20;;;73.55;;
1140;SDS011;559;48.628;8.924;2023-10-31T00:27:57;77.82;;;73.43;;
1140;SDS011;559;48.628;8.924;2023-10-31T00:30:24;77.53;;;73.13;;
1140;SDS011;559;48.628;8.924;2023-10-31T00:32:50;77.57;;;73.18;;
1140;SDS011;559;48.628;8.924;2023-10-31T00:35:18;76.28;;;71.88;;
1140;SDS011;559;48.628;8.924;2023-10-31T00:37:45;74.25;;;69.25;;
1140;SDS011;559;48.628;8.924;2023-10-31T00:40:11;76.45;;;72.05;;
1140;SDS011;559;48.628;8.924;2023-10-31T00:42:39;74.78;;;70.45;;
1140;SDS011;559;48.628;8.924;2023-10-31T00:45:07;70.25;;;66.15;;
1140;SDS011;559;48.628;8.924;2023-10-31T00:47:34;69.25;;;65.15;;
1140;SDS011;559;48.628;8.924;2023-10-31T00:50:00;72.65;;;68.55;;
1140;SDS011;559;48.628;8.924;2023-10-31T00:52:28;68.75;;;64.82;;
1140;SDS011;559;48.628;8.924;2023-10-31T00:54:55;73.55;;;69.25;;
1140;SDS011;559;48.628;8.924;2023-10-31T00:57:21;69.85;;;65.95;;
1140;SDS011;559;48.628;8.924;2023-10-31T00:59:48;75.35;;;71.15;;
1140;SDS011;559;48.628;8.924;2023-10-31T01:02:14;76.15;;;71.95;;
1140;SDS011;559;48.628;8.924;2023-10-31T01:04:41;74.90;;;70.70;;
1140;SDS011;559;48.628;8.924;2023-10-31T01:07:07;71.97;;;67.97;;
1140;SDS011;559;48.628;8.924;2023-10-31T01:09:38;74.10;;;70.03;;
1140;SDS011;559;48.628;8.924;2023-10-31T01:12:05;72.15;;;68.05;;
1140;SDS011;559;48.628;8.924;2023-10-31T01:14:32;74.65;;;70.15;;
1140;SDS011;559;48.628;8.924;2023-10-31T01:16:59;75.75;;;71.75;;
1140;SDS011;559;48.628;8.924;2023-10-31T01:19:25;80.13;;;75.95;;
1140;SDS011;559;48.628;8.924;2023-10-31T01:21:52;78.25;;;74.05;;
1140;SDS011;559;48.628;8.924;2023-10-31T01:24:18;81.72;;;77.43;;
1140;SDS011;559;48.628;8.924;2023-10-31T01:26:46;76.60;;;72.30;;
1140;SDS011;559;48.628;8.924;2023-10-31T01:29:12;80.28;;;75.88;;
1140;SDS011;559;48.628;8.924;2023-10-31T01:31:40;81.15;;;76.75;;
1140;SDS011;559;48.628;8.924;2023-10-31T01:34:07;75.30;;;71.20;;
1140;SDS011;559;48.628;8.924;2023-10-31T01:36:33;75.03;;;70.82;;
1140;SDS011;559;48.628;8.924;2023-10-31T01:39:00;77.75;;;73.40;;
1140;SDS011;559;48.628;8.924;2023-10-31T01:41:27;79.30;;;74.90;;
1140;SDS011;559;48.628;8.924;2023-10-31T01:43:54;80.93;;;76.53;;
1140;SDS011;559;48.628;8.924;2023-10-31T01:46:20;77.50;;;73.20;;
1140;SDS011;559;48.628;8.924;2023-10-31T01:48:47;78.47;;;74.18;;
1140;SDS011;559;48.628;8.924;2023-10-31T01:51:13;79.53;;;75.22;;
1140;SDS011;559;48.628;8.924;2023-10-31T01:53:40;79.00;;;74.70;;
1140;SDS011;559;48.628;8.924;2023-10-31T01:56:06;73.50;;;69.22;;
1140;SDS011;559;48.628;8.924;2023-10-31T01:58:34;72.70;;;68.43;;
1140;SDS011;559;48.628;8.924;2023-10-31T02:01:01;75.28;;;70.97;;
1140;SDS011;559;48.628;8.924;2023-10-31T02:03:28;76.35;;;72.25;;
1140;SDS011;559;48.628;8.924;2023-10-31T02:05:55;75.38;;;71.22;;
1140;SDS011;559;48.628;8.924;2023-10-31T02:08:22;73.72;;;69.72;;
1140;SDS011;559;48.628;8.924;2023-10-31T02:10:48;72.88;;;68.78;;
1140;SDS011;559;48.628;8.924;2023-10-31T02:13:15;68.63;;;64.82;;
1140;SDS011;559;48.628;8.924;2023-10-31T02:15:43;71.10;;;67.22;;
1140;SDS011;559;48.628;8.924;2023-10-31T02:18:11;68.90;;;65.20;;
1140;SDS011;559;48.628;8.924;2023-10-31T02:20:38;66.72;;;63.05;;
1140;SDS011;559;48.628;8.924;2023-10-31T02:23:06;66.45;;;62.85;;
1140;SDS011;559;48.628;8.924;2023-10-31T02:25:32;68.10;;;64.40;;
1140;SDS011;559;48.628;8.924;2023-10-31T02:27:59;66.75;;;63.15;;
1140;SDS011;559;48.628;8.924;2023-10-31T02:30:26;68.93;;;65.30;;
1140;SDS011;559;48.628;8.924;2023-10-31T02:32:53;67.15;;;63.53;;
1140;SDS011;559;48.628;8.924;2023-10-31T02:35:19;68.95;;;65.15;;
1140;SDS011;559;48.628;8.924;2023-10-31T02:37:46;65.45;;;61.85;;
1140;SDS011;559;48.628;8.924;2023-10-31T02:40:14;66.18;;;62.47;;
1140;SDS011;559;48.628;8.924;2023-10-31T02:42:41;66.07;;;62.38;;
1140;SDS011;559;48.628;8.924;2023-10-31T02:45:08;65.10;;;61.45;;
1140;SDS011;559;48.628;8.924;2023-10-31T02:47:34;65.00;;;61.38;;
1140;SDS011;559;48.628;8.924;2023-10-31T02:50:01;62.65;;;59.00;;
1140;SDS011;559;48.628;8.924;2023-10-31T02:52:28;64.00;;;60.30;;
1140;SDS011;559;48.628;8.924;2023-10-31T02:54:54;63.40;;;59.60;;
1140;SDS011;559;48.628;8.924;2023-10-31T02:57:22;60.10;;;56.40;;
1140;SDS011;559;48.628;8.924;2023-10-31T02:59:48;64.22;;;60.40;;
1140;SDS011;559;48.628;8.924;2023-10-31T03:02:15;61.80;;;57.80;;
1140;SDS011;559;48.628;8.924;2023-10-31T03:04:41;66.75;;;62.78;;
1140;SDS011;559;48.628;8.924;2023-10-31T03:07:08;67.82;;;63.72;;
1140;SDS011;559;48.628;8.924;2023-10-31T03:09:34;66.68;;;62.58;;
1140;SDS011;559;48.628;8.924;2023-10-31T03:12:01;62.70;;;58.80;;
1140;SDS011;559;48.628;8.924;2023-10-31T03:14:29;62.70;;;58.80;;
1140;SDS011;559;48.628;8.924;2023-10-31T03:16:55;65.55;;;61.45;;
1140;SDS011;559;48.628;8.924;2023-10-31T03:19:22;62.30;;;58.30;;
1140;SDS011;559;48.628;8.924;2023-10-31T03:21:48;62.85;;;58.88;;
1140;SDS011;559;48.628;8.924;2023-10-31T03:24:15;63.00;;;59.00;;
1140;SDS011;559;48.628;8.924;2023-10-31T03:26:41;64.80;;;60.80;;
1140;SDS011;559;48.628;8.924;2023-10-31T03:29:08;62.97;;;59.00;;
1140;SDS011;559;48.628;8.924;2023-10-31T03:31:36;63.55;;;59.55;;
1140;SDS011;559;48.628;8.924;2023-10-31T03:34:03;62.92;;;58.92;;
1140;SDS011;559;48.628;8.924;2023-10-31T03:36:29;66.20;;;62.10;;
1140;SDS011;559;48.628;8.924;2023-10-31T03:38:56;62.70;;;58.70;;
1140;SDS011;559;48.628;8.924;2023-10-31T03:41:23;62.88;;;58.88;;
1140;SDS011;559;48.628;8.924;2023-10-31T03:43:49;61.60;;;57.70;;
1140;SDS011;559;48.628;8.924;2023-10-31T03:46:16;61.17;;;56.95;;
1140;SDS011;559;48.628;8.924;2023-10-31T03:48:43;62.15;;;58.17;;
1140;SDS011;559;48.628;8.924;2023-10-31T03:51:10;63.80;;;59.70;;
1140;SDS011;559;48.628;8.924;2023-10-31T03:53:36;64.20;;;60.00;;
1140;SDS011;559;48.628;8.924;2023-10-31T03:56:03;63.05;;;59.00;;
1140;SDS011;559;48.628;8.924;2023-10-31T03:58:30;62.67;;;58.58;;
1140;SDS011;559;48.628;8.924;2023-10-31T04:00:56;64.80;;;60.70;;
1140;SDS011;559;48.628;8.924;2023-10-31T04:03:23;65.05;;;60.95;;
1140;SDS011;559;48.628;8.924;2023-10-31T04:05:51;66.40;;;62.28;;
1140;SDS011;559;48.628;8.924;2023-10-31T04:08:17;69.28;;;65.07;;
1140;SDS011;559;48.628;8.924;2023-10-31T04:10:44;65.35;;;61.15;;
1140;SDS011;559;48.628;8.924;2023-10-31T04:13:10;67.15;;;63.05;;
1140;SDS011;559;48.628;8.924;2023-10-31T04:15:37;63.75;;;59.70;;
1140;SDS011;559;48.628;8.924;2023-10-31T04:18:03;65.07;;;61.03;;
1140;SDS011;559;48.628;8.924;2023-10-31T04:20:30;65.97;;;61.70;;
1140;SDS011;559;48.628;8.924;2023-10-31T04:22:58;64.63;;;60.63;;
1140;SDS011;559;48.628;8.924;2023-10-31T04:25:24;64.43;;;60.35;;
1140;SDS011;559;48.628;8.924;2023-10-31T04:27:52;67.38;;;63.13;;
1140;SDS011;559;48.628;8.924;2023-10-31T04:30:18;66.30;;;62.08;;
1140;SDS011;559;48.628;8.924;2023-10-31T04:32:44;72.18;;;67.78;;
1140;SDS011;559;48.628;8.924;2023-10-31T04:35:11;68.45;;;64.05;;
1140;SDS011;559;48.628;8.924;2023-10-31T04:37:38;63.90;;;59.60;;
1140;SDS011;559;48.628;8.924;2023-10-31T04:40:06;66.05;;;61.85;;
1140;SDS011;559;48.628;8.924;2023-10-31T04:42:33;68.72;;;64.32;;
1140;SDS011;559;48.628;8.924;2023-10-31T04:45:00;70.72;;;66.20;;
1140;SDS011;559;48.628;8.924;2023-10-31T04:47:27;67.05;;;62.75;;
1140;SDS011;559;48.628;8.924;2023-10-31T04:49:54;65.60;;;61.40;;
1140;SDS011;559;48.628;8.924;2023-10-31T04:52:20;67.90;;;63.70;;
1140;SDS011;559;48.628;8.924;2023-10-31T04:54:47;64.97;;;60.78;;
1140;SDS011;559;48.628;8.924;2023-10-31T04:57:15;65.38;;;61.28;;
1140;SDS011;559;48.628;8.924;2023-10-31T04:59:42;61.88;;;57.88;;
1140;SDS011;559;48.628;8.924;2023-10-31T05:02:08;61.08;;;57.28;;
1140;SDS011;559;48.628;8.924;2023-10-31T05:04:37;60.80;;;57.00;;
1140;SDS011;559;48.628;8.924;2023-10-31T05:07:04;60.13;;;56.38;;
1140;SDS011;559;48.628;8.924;2023-10-31T05:09:30;61.33;;;57.55;;
1140;SDS011;559;48.628;8.924;2023-10-31T05:11:57;59.58;;;55.83;;
1140;SDS011;559;48.628;8.924;2023-10-31T05:14:25;56.88;;;53.35;;
1140;SDS011;559;48.628;8.924;2023-10-31T05:16:51;54.22;;;50.83;;
1140;SDS011;559;48.628;8.924;2023-10-31T05:19:18;56.53;;;53.03;;
1140;SDS011;559;48.628;8.924;2023-10-31T05:21:44;56.35;;;52.97;;
1140;SDS011;559;48.628;8.924;2023-10-31T05:24:11;54.15;;;50.55;;
1140;SDS011;559;48.628;8.924;2023-10-31T05:26:39;53.03;;;49.83;;
1140;SDS011;559;48.628;8.924;2023-10-31T05:29:05;54.75;;;50.88;;
1140;SDS011;559;48.628;8.924;2023-10-31T05:31:34;55.75;;;52.35;;
1140;SDS011;559;48.628;8.924;2023-10-31T05:34:01;54.72;;;51.05;;
1140;SDS011;559;48.628;8.924;2023-10-31T05:36:28;52.20;;;49.10;;
1140;SDS011;559;48.628;8.924;2023-10-31T05:38:55;54.83;;;51.35;;
1140;SDS011;559;48.628;8.924;2023-10-31T05:41:22;53.53;;;50.42;;
1140;SDS011;559;48.628;8.924;2023-10-31T05:43:48;54.15;;;50.95;;
1140;SDS011;559;48.628;8.924;2023-10-31T05:46:15;57.00;;;53.70;;
1140;SDS011;559;48.628;8.924;2023-10-31T05:48:43;60.53;;;57.13;;
1140;SDS011;559;48.628;8.924;2023-10-31T05:51:11;62.33;;;58.92;;
1140;SDS011;559;48.628;8.924;2023-10-31T05:53:39;62.00;;;58.60;;
1140;SDS011;559;48.628;8.924;2023-10-31T05:56:06;63.10;;;59.70;;
1140;SDS011;559;48.628;8.924;2023-10-31T05:58:33;64.30;;;60.70;;
1140;SDS011;559;48.628;8.924;2023-10-31T06:01:00;64.45;;;60.95;;
1140;SDS011;559;48.628;8.924;2023-10-31T06:03:26;66.32;;;62.80;;
1140;SDS011;559;48.628;8.924;2023-10-31T06:05:54;68.38;;;64.78;;
1140;SDS011;559;48.628;8.924;2023-10-31T06:08:20;67.18;;;63.58;;
1140;SDS011;559;48.628;8.924;2023-10-31T06:10:49;67.85;;;64.25;;
1140;SDS011;559;48.628;8.924;2023-10-31T06:13:15;69.10;;;65.13;;
1140;SDS011;559;48.628;8.924;2023-10-31T06:15:42;67.03;;;63.53;;
1140;SDS011;559;48.628;8.924;2023-10-31T06:18:09;67.10;;;63.60;;
1140;SDS011;559;48.628;8.924;2023-10-31T06:20:35;67.80;;;64.18;;
1140;SDS011;559;48.628;8.924;2023-10-31T06:23:03;62.67;;;58.97;;
1140;SDS011;559;48.628;8.924;2023-10-31T06:25:30;63.25;;;59.55;;
1140;SDS011;559;48.628;8.924;2023-10-31T06:27:56;61.63;;;58.03;;
1140;SDS011;559;48.628;8.924;2023-10-31T06:30:23;62.20;;;58.50;;
1140;SDS011;559;48.628;8.924;2023-10-31T06:32:50;61.30;;;57.60;;
1140;SDS011;559;48.628;8.924;2023-10-31T06:35:17;60.00;;;56.40;;
1140;SDS011;559;48.628;8.924;2023-10-31T06:37:43;60.08;;;56.38;;
1140;SDS011;559;48.628;8.924;2023-10-31T06:40:11;58.72;;;55.13;;
1140;SDS011;559;48.628;8.924;2023-10-31T06:42:38;58.08;;;54.22;;
1140;SDS011;559;48.628;8.924;2023-10-31T06:45:05;57.00;;;53.50;;
1140;SDS011;559;48.628;8.924;2023-10-31T06:47:32;58.10;;;54.55;;
1140;SDS011;559;48.628;8.924;2023-10-31T06:49:59;59.63;;;55.92;;
1140;SDS011;559;48.628;8.924;2023-10-31T06:52:25;59.30;;;55.60;;
1140;SDS011;559;48.628;8.924;2023-10-31T06:54:52;58.42;;;54.85;;
1140;SDS011;559;48.628;8.924;2023-10-31T06:57:19;61.63;;;57.83;;
1140;SDS011;559;48.628;8.924;2023-10-31T06:59:46;61.45;;;57.65;;
1140;SDS011;559;48.628;8.924;2023-10-31T07:02:12;62.20;;;58.30;;
1140;SDS011;559;48.628;8.924;2023-10-31T07:04:39;54.28;;;50.22;;
1140;SDS011;559;48.628;8.924;2023-10-31T07:07:05;53.45;;;49.95;;
1140;SDS011;559;48.628;8.924;2023-10-31T07:09:32;52.78;;;49.15;;
1140;SDS011;559;48.628;8.924;2023-10-31T07:11:58;51.30;;;47.85;;
1140;SDS011;559;48.628;8.924;2023-10-31T07:14:26;54.00;;;50.20;;
1140;SDS011;559;48.628;8.924;2023-10-31T07:16:53;56.70;;;52.50;;
1140;SDS011;559;48.628;8.924;2023-10-31T07:19:19;58.75;;;54.35;;
1140;SDS011;559;48.628;8.924;2023-10-31T07:21:46;55.78;;;51.97;;
1140;SDS011;559;48.628;8.924;2023-10-31T07:24:12;53.85;;;50.00;;
1140;SDS011;559;48.628;8.924;2023-10-31T07:26:39;55.55;;;51.95;;
1140;SDS011;559;48.628;8.924;2023-10-31T07:29:05;51.92;;;48.42;;
1140;SDS011;559;48.628;8.924;2023-10-31T07:31:33;53.50;;;49.90;;
1140;SDS011;559;48.628;8.924;2023-10-31T07:34:03;56.97;;;53.03;;
1140;SDS011;559;48.628;8.924;2023-10-31T07:36:30;55.05;;;51.00;;
1140;SDS011;559;48.628;8.924;2023-10-31T07:38:57;54.17;;;50.58;;
1140;SDS011;559;48.628;8.924;2023-10-31T07:41:24;56.55;;;52.85;;
1140;SDS011;559;48.628;8.924;2023-10-31T07:43:50;56.15;;;51.85;;
1140;SDS011;559;48.628;8.924;2023-10-31T07:46:16;56.10;;;52.30;;
1140;SDS011;559;48.628;8.924;2023-10-31T07:48:45;55.42;;;51.72;;
1140;SDS011;559;48.628;8.924;2023-10-31T07:51:12;55.38;;;51.67;;
1140;SDS011;559;48.628;8.924;2023-10-31T07:53:38;53.67;;;49.88;;
1140;SDS011;559;48.628;8.924;2023-10-31T07:56:05;52.60;;;49.00;;
1140;SDS011;559;48.628;8.924;2023-10-31T07:58:32;54.00;;;50.40;;
1140;SDS011;559;48.628;8.924;2023-10-31T08:00:58;54.50;;;50.75;;
1140;SDS011;559;48.628;8.924;2023-10-31T08:03:25;52.85;;;49.33;;
1140;SDS011;559;48.628;8.924;2023-10-31T08:05:53;54.72;;;51.03;;
1140;SDS011;559;48.628;8.924;2023-10-31T08:08:19;56.65;;;52.75;;
1140;SDS011;559;48.628;8.924;2023-10-31T08:10:46;53.80;;;50.10;;
1140;SDS011;559;48.628;8.924;2023-10-31T08:13:12;52.50;;;48.70;;
1140;SDS011;559;48.628;8.924;2023-10-31T08:15:39;51.30;;;47.70;;
1140;SDS011;559;48.628;8.924;2023-10-31T08:18:05;51.72;;;48.05;;
1140;SDS011;559;48.628;8.924;2023-10-31T08:20:32;52.47;;;48.90;;
1140;SDS011;559;48.628;8.924;2023-10-31T08:23:00;53.78;;;50.10;;
1140;SDS011;559;48.628;8.924;2023-10-31T08:25:26;52.90;;;49.30;;
1140;SDS011;559;48.628;8.924;2023-10-31T08:27:53;53.83;;;50.22;;
1140;SDS011;559;48.628;8.924;2023-10-31T08:30:19;52.60;;;49.00;;
1140;SDS011;559;48.628;8.924;2023-10-31T08:32:46;53.67;;;49.97;;
1140;SDS011;559;48.628;8.924;2023-10-31T08:35:13;53.70;;;49.80;;
1140;SDS011;559;48.628;8.924;2023-10-31T08:37:40;50.70;;;47.20;;
1140;SDS011;559;48.628;8.924;2023-10-31T08:40:09;50.40;;;46.80;;
1140;SDS011;559;48.628;8.924;2023-10-31T08:42:36;50.65;;;47.15;;
1140;SDS011;559;48.628;8.924;2023-10-31T08:45:03;52.00;;;48.50;;
1140;SDS011;559;48.628;8.924;2023-10-31T08:47:30;49.35;;;45.95;;
1140;SDS011;559;48.628;8.924;2023-10-31T08:49:56;52.75;;;48.92;;
1140;SDS011;559;48.628;8.924;2023-10-31T08:52:23;50.88;;;47.47;;
1140;SDS011;559;48.628;8.924;2023-10-31T08:54:49;48.42;;;45.13;;
1140;SDS011;559;48.628;8.924;2023-10-31T08:57:17;46.42;;;43.33;;
1140;SDS011;559;48.628;8.924;2023-10-31T08:59:43;47.30;;;44.08;;
1140;SDS011;559;48.628;8.924;2023-10-31T09:02:10;46.85;;;43.72;;
1140;SDS011;559;48.628;8.924;2023-10-31T09:04:36;47.90;;;44.70;;
1140;SDS011;559;48.628;8.924;2023-10-31T09:07:03;46.97;;;43.75;;
1140;SDS011;559;48.628;8.924;2023-10-31T09:09:30;47.22;;;44.13;;
1140;SDS011;559;48.628;8.924;2023-10-31T09:11:56;49.30;;;46.20;;
1140;SDS011;559;48.628;8.924;2023-10-31T09:14:24;48.05;;;45.05;;
1140;SDS011;559;48.628;8.924;2023-10-31T09:16:50;46.47;;;43.58;;
1140;SDS011;559;48.628;8.924;2023-10-31T09:19:17;46.10;;;43.20;;
1140;SDS011;559;48.628;8.924;2023-10-31T09:21:43;46.78;;;43.78;;
1140;SDS011;559;48.628;8.924;2023-10-31T09:24:10;46.70;;;43.80;;
1140;SDS011;559;48.628;8.924;2023-10-31T09:26:41;46.03;;;43.13;;
1140;SDS011;559;48.628;8.924;2023-10-31T09:29:08;44.78;;;42.00;;
1140;SDS011;559;48.628;8.924;2023-10-31T09:31:36;43.53;;;40.88;;
1140;SDS011;559;48.628;8.924;2023-10-31T09:34:02;42.10;;;39.30;;
1140;SDS011;559;48.628;8.924;2023-10-31T09:36:31;42.25;;;39.85;;
1140;SDS011;559;48.628;8.924;2023-10-31T09:38:59;42.08;;;39.67;;
1140;SDS011;559;48.628;8.924;2023-10-31T09:41:25;41.42;;;39.00;;
1140;SDS011;559;48.628;8.924;2023-10-31T09:43:52;41.30;;;39.00;;
1140;SDS011;559;48.628;8.924;2023-10-31T09:46:19;41.47;;;39.28;;
1140;SDS011;559;48.628;8.924;2023-10-31T09:48:48;43.05;;;40.78;;
1140;SDS011;559;48.628;8.924;2023-10-31T09:51:15;41.05;;;38.70;;
1140;SDS011;559;48.628;8.924;2023-10-31T09:53:45;41.63;;;39.33;;
1140;SDS011;559;48.628;8.924;2023-10-31T09:56:12;43.10;;;40.50;;
1140;SDS011;559;48.628;8.924;2023-10-31T09:58:39;42.00;;;39.70;;
1140;SDS011;559;48.628;8.924;2023-10-31T10:01:06;42.40;;;39.80;;
1140;SDS011;559;48.628;8.924;2023-10-31T10:03:33;41.20;;;38.90;;
1140;SDS011;559;48.628;8.924;2023-10-31T10:06:01;40.22;;;38.13;;
1140;SDS011;559;48.628;8.924;2023-10-31T10:08:28;42.67;;;40.05;;
1140;SDS011;559;48.628;8.924;2023-10-31T10:10:55;40.30;;;38.28;;
1140;SDS011;559;48.628;8.924;2023-10-31T10:13:21;39.45;;;37.45;;
1140;SDS011;559;48.628;8.924;2023-10-31T10:15:48;39.30;;;37.38;;
1140;SDS011;559;48.628;8.924;2023-10-31T10:18:26;39.22;;;37.20;;
1140;SDS011;559;48.628;8.924;2023-10-31T10:20:55;39.95;;;37.80;;
1140;SDS011;559;48.628;8.924;2023-10-31T10:23:24;38.55;;;36.58;;
1140;SDS011;559;48.628;8.924;2023-10-31T10:25:52;40.50;;;38.30;;
1140;SDS011;559;48.628;8.924;2023-10-31T10:28:19;40.03;;;38.03;;
1140;SDS011;559;48.628;8.924;2023-10-31T10:30:46;39.40;;;37.60;;
1140;SDS011;559;48.628;8.924;2023-10-31T10:33:13;39.17;;;37.17;;
1140;SDS011;559;48.628;8.924;2023-10-31T10:35:39;38.25;;;36.45;;
1140;SDS011;559;48.628;8.924;2023-10-31T10:38:06;38.90;;;37.17;;
1140;SDS011;559;48.628;8.924;2023-10-31T10:40:38;38.35;;;36.65;;
1140;SDS011;559;48.628;8.924;2023-10-31T10:43:06;39.05;;;37.20;;
1140;SDS011;559;48.628;8.924;2023-10-31T10:45:36;38.45;;;36.70;;
1140;SDS011;559;48.628;8.924;2023-10-31T10:48:05;38.70;;;36.45;;
1140;SDS011;559;48.628;8.924;2023-10-31T10:50:36;38.20;;;36.58;;
1140;SDS011;559;48.628;8.924;2023-10-31T10:53:10;37.55;;;36.05;;
1140;SDS011;559;48.628;8.924;2023-10-31T10:55:44;36.20;;;34.60;;
1140;SDS011;559;48.628;8.924;2023-10-31T10:58:13;36.80;;;35.20;;
1140;SDS011;559;48.628;8.924;2023-10-31T11:00:43;36.90;;;35.20;;
1140;SDS011;559;48.628;8.924;2023-10-31T11:03:10;37.17;;;35.58;;
1140;SDS011;559;48.628;8.924;2023-10-31T11:05:37;36.05;;;34.60;;
1140;SDS011;559;48.628;8.924;2023-10-31T11:08:04;36.05;;;34.65;;
1140;SDS011;559;48.628;8.924;2023-10-31T11:10:31;34.90;;;33.60;;
1140;SDS011;559;48.628;8.924;2023-10-31T11:12:58;34.80;;;33.50;;
1140;SDS011;559;48.628;8.924;2023-10-31T11:15:25;36.20;;;34.60;;
1140;SDS011;559;48.628;8.924;2023-10-31T11:17:52;35.80;;;34.30;;
1140;SDS011;559;48.628;8.924;2023-10-31T11:20:21;36.50;;;34.97;;
1140;SDS011;559;48.628;8.924;2023-10-31T11:22:47;37.40;;;35.83;;
1140;SDS011;559;48.628;8.924;2023-10-31T11:25:17;37.20;;;35.80;;
1140;SDS011;559;48.628;8.924;2023-10-31T11:27:45;35.17;;;33.88;;
1140;SDS011;559;48.628;8.924;2023-10-31T11:30:20;36.05;;;34.75;;
1140;SDS011;559;48.628;8.924;2023-10-31T11:32:48;34.50;;;33.30;;
1140;SDS011;559;48.628;8.924;2023-10-31T11:35:15;33.63;;;32.38;;
1140;SDS011;559;48.628;8.924;2023-10-31T11:37:42;34.40;;;33.10;;
1140;SDS011;559;48.628;8.924;2023-10-31T11:40:18;33.40;;;32.20;;
1140;SDS011;559;48.628;8.924;2023-10-31T11:42:47;34.58;;;32.85;;
1140;SDS011;559;48.628;8.924;2023-10-31T11:45:25;32.88;;;31.67;;
1140;SDS011;559;48.628;8.924;2023-10-31T11:47:53;33.30;;;32.20;;
1140;SDS011;559;48.628;8.924;2023-10-31T11:50:20;32.85;;;31.75;;
1140;SDS011;559;48.628;8.924;2023-10-31T11:52:57;34.53;;;33.22;;
1140;SDS011;559;48.628;8.924;2023-10-31T11:55:29;34.50;;;33.30;;
1140;SDS011;559;48.628;8.924;2023-10-31T11:57:58;34.55;;;33.25;;
1140;SDS011;559;48.628;8.924;2023-10-31T12:00:26;38.47;;;36.55;;
1140;SDS011;559;48.628;8.924;2023-10-31T12:02:56;33.75;;;32.42;;
1140;SDS011;559;48.628;8.924;2023-10-31T12:05:24;35.70;;;34.10;;
1140;SDS011;559;48.628;8.924;2023-10-31T12:07:50;35.13;;;33.75;;
1140;SDS011;559;48.628;8.924;2023-10-31T12:10:21;34.10;;;32.90;;
1140;SDS011;559;48.628;8.924;2023-10-31T12:12:48;36.30;;;34.90;;
1140;SDS011;559;48.628;8.924;2023-10-31T12:15:15;35.20;;;33.92;;
1140;SDS011;559;48.628;8.924;2023-10-31T12:17:42;34.17;;;32.88;;
1140;SDS011;559;48.628;8.924;2023-10-31T12:20:09;34.08;;;32.88;;
1140;SDS011;559;48.628;8.924;2023-10-31T12:22:36;34.75;;;33.55;;
1140;SDS011;559;48.628;8.924;2023-10-31T12:25:05;33.55;;;32.35;;
1140;SDS011;559;48.628;8.924;2023-10-31T12:27:42;34.55;;;33.25;;
1140;SDS011;559;48.628;8.924;2023-10-31T12:30:09;34.15;;;32.95;;
1140;SDS011;559;48.628;8.924;2023-10-31T12:32:37;34.97;;;33.67;;
1140;SDS011;559;48.628;8.924;2023-10-31T12:35:05;35.13;;;33.83;;
1140;SDS011;559;48.628;8.924;2023-10-31T12:37:31;34.85;;;33.45;;
1140;SDS011;559;48.628;8.924;2023-10-31T12:39:58;34.30;;;33.05;;
1140;SDS011;559;48.628;8.924;2023-10-31T12:42:29;35.22;;;33.83;;
1140;SDS011;559;48.628;8.924;2023-10-31T12:44:56;35.95;;;34.55;;
1140;SDS011;559;48.628;8.924;2023-10-31T12:47:24;34.80;;;33.53;;
1140;SDS011;559;48.628;8.924;2023-10-31T12:52:47;35.83;;;34.42;;
1140;SDS011;559;48.628;8.924;2023-10-31T12:55:15;35.33;;;33.92;;
1140;SDS011;559;48.628;8.924;2023-10-31T12:57:42;35.55;;;33.97;;
1140;SDS011;559;48.628;8.924;2023-10-31T13:00:09;36.75;;;35.15;;
1140;SDS011;559;48.628;8.924;2023-10-31T13:02:37;37.75;;;35.95;;
1140;SDS011;559;48.628;8.924;2023-10-31T13:05:09;38.33;;;36.65;;
1140;SDS011;559;48.628;8.924;2023-10-31T13:07:37;36.50;;;34.92;;
1140;SDS011;559;48.628;8.924;2023-10-31T13:10:03;36.40;;;34.90;;
1140;SDS011;559;48.628;8.924;2023-10-31T13:12:30;35.90;;;34.42;;
1140;SDS011;559;48.628;8.924;2023-10-31T13:14:58;35.92;;;34.10;;
1140;SDS011;559;48.628;8.924;2023-10-31T13:17:26;35.58;;;34.13;;
1140;SDS011;559;48.628;8.924;2023-10-31T13:19:52;35.67;;;34.17;;
1140;SDS011;559;48.628;8.924;2023-10-31T13:22:20;36.38;;;35.08;;
1140;SDS011;559;48.628;8.924;2023-10-31T13:24:47;34.13;;;32.80;;
1140;SDS011;559;48.628;8.924;2023-10-31T13:27:13;33.00;;;31.80;;
1140;SDS011;559;48.628;8.924;2023-10-31T13:29:41;33.85;;;32.65;;
1140;SDS011;559;48.628;8.924;2023-10-31T13:32:08;33.92;;;32.55;;
1140;SDS011;559;48.628;8.924;2023-10-31T13:34:34;33.10;;;31.67;;
1140;SDS011;559;48.628;8.924;2023-10-31T13:37:01;32.70;;;31.50;;
1140;SDS011;559;48.628;8.924;2023-10-31T13:39:30;33.92;;;32.60;;
1140;SDS011;559;48.628;8.924;2023-10-31T13:41:56;33.70;;;32.50;;
1140;SDS011;559;48.628;8.924;2023-10-31T13:44:23;33.85;;;32.65;;
1140;SDS011;559;48.628;8.924;2023-10-31T13:46:49;34.38;;;33.17;;
1140;SDS011;559;48.628;8.924;2023-10-31T13:49:16;33.00;;;31.90;;
1140;SDS011;559;48.628;8.924;2023-10-31T13:51:42;32.95;;;31.85;;
1140;SDS011;559;48.628;8.924;2023-10-31T13:54:09;32.30;;;31.20;;
1140;SDS011;559;48.628;8.924;2023-10-31T13:56:37;31.98;;;30.98;;
1140;SDS011;559;48.628;8.924;2023-10-31T13:59:03;31.35;;;30.35;;
1140;SDS011;559;48.628;8.924;2023-10-31T14:01:30;31.90;;;30.70;;
1140;SDS011;559;48.628;8.924;2023-10-31T14:03:56;31.48;;;30.48;;
1140;SDS011;559;48.628;8.924;2023-10-31T14:06:23;32.70;;;31.60;;
1140;SDS011;559;48.628;8.924;2023-10-31T14:08:54;31.83;;;30.83;;
1140;SDS011;559;48.628;8.924;2023-10-31T14:11:21;31.33;;;30.17;;
1140;SDS011;559;48.628;8.924;2023-10-31T14:13:49;32.80;;;31.70;;
1140;SDS011;559;48.628;8.924;2023-10-31T14:16:17;32.55;;;31.45;;
1140;SDS011;559;48.628;8.924;2023-10-31T14:18:43;31.95;;;30.85;;
1140;SDS011;559;48.628;8.924;2023-10-31T14:21:11;32.05;;;31.05;;
1140;SDS011;559;48.628;8.924;2023-10-31T14:23:38;34.05;;;32.90;;
1140;SDS011;559;48.628;8.924;2023-10-31T14:26:04;33.97;;;32.67;;
1140;SDS011;559;48.628;8.924;2023-10-31T14:28:31;34.03;;;32.70;;
1140;SDS011;559;48.628;8.924;2023-10-31T14:30:59;34.88;;;33.47;;
1140;SDS011;559;48.628;8.924;2023-10-31T14:33:25;35.28;;;33.90;;
1140;SDS011;559;48.628;8.924;2023-10-31T14:35:52;35.30;;;34.00;;
1140;SDS011;559;48.628;8.924;2023-10-31T14:38:18;36.20;;;34.80;;
1140;SDS011;559;48.628;8.924;2023-10-31T14:40:45;35.38;;;33.92;;
1140;SDS011;559;48.628;8.924;2023-10-31T14:43:11;36.45;;;35.05;;
1140;SDS011;559;48.628;8.924;2023-10-31T14:45:43;36.55;;;35.05;;
1140;SDS011;559;48.628;8.924;2023-10-31T14:48:11;35.97;;;34.58;;
1140;SDS011;559;48.628;8.924;2023-10-31T14:50:38;37.17;;;35.53;;
1140;SDS011;559;48.628;8.924;2023-10-31T14:53:04;36.45;;;34.85;;
1140;SDS011;559;48.628;8.924;2023-10-31T14:55:31;36.60;;;34.65;;
1140;SDS011;559;48.628;8.924;2023-10-31T14:57:58;37.50;;;35.90;;
1140;SDS011;559;48.628;8.924;2023-10-31T15:00:24;38.30;;;36.65;;
1140;SDS011;559;48.628;8.924;2023-10-31T15:02:51;38.85;;;37.15;;